Tipton, Tennessee
Current Conditions -  °F | °C
As of 3:15 AM on Wednesday 28 Jan 2015 (Local Time) from KNQA Reporting Station
Clear Clear  
Wind Chill: 30°   Ceiling: Unl
Heat Index: 34°   Visibility: 10mi
Dew Point: 30°   Wind: 5mph
Humidity: 87%   Direction: 70°ENE
Pressure: 30.25"   Gusts: NA
Location:  35.41°N, 89.82°W
Report Text: KNQA 280915Z AUTO 07004KT 10SM CLR 01/M01 A3025 RMK
Loading
Personal Weather Stations






























Interactive Weather Map New forecast layout! Learn more

10-Day Weather Forecast

Advertisements
Track Severe Weather on mobile